Terminal Aerodrome Forecast
Issued by NWS

Home | Current Version | Previous Version | Text Only | Print | Product List | Glossary On
Versions: 1 2 3 4 5 6 7 8 9 10 11 12 13 14 15 16 17 18 19 20 21 22 23 24 25 26 27 28 29 30 31 32
000
FTUS45 KBOU 280055 AAC
TAFBJC
TAF AMD
KBJC 280055Z 2801/2824 26011KT P6SM SCT110 BKN200
     FM280300 22010KT P6SM SCT080 BKN200
     FM280700 32012KT P6SM FEW070 SCT110 BKN200
     FM280900 05009KT P6SM FEW050 SCT100 BKN200
     FM281100 17007KT P6SM SCT050 BKN110
     FM281800 14008KT P6SM VCSH SCT020 BKN080
      TEMPO 2820/2824 05008KT 3SM -SHSN BKN020=

USA.gov is the U.S. government's official web portal to all federal, state and local government web resources and services.